sensor_id;sensor_type;location;lat;lon;timestamp;pressure;altitude;pressure_sealevel;temperature;humidity
46211;BME280;52144;48.040;-1.594;2023-04-01T00:01:58;100377.09;;;20.34;54.76
46211;BME280;52144;48.040;-1.594;2023-04-01T00:04:26;100377.56;;;20.59;55.85
46211;BME280;52144;48.040;-1.594;2023-04-01T00:06:55;100377.69;;;20.67;54.85
46211;BME280;52144;48.040;-1.594;2023-04-01T00:09:23;100374.53;;;20.91;54.24
46211;BME280;52144;48.040;-1.594;2023-04-01T00:11:55;100383.13;;;19.47;58.94
46211;BME280;52144;48.040;-1.594;2023-04-01T00:14:23;100373.88;;;19.40;57.75
46211;BME280;52144;48.040;-1.594;2023-04-01T00:16:50;100380.13;;;19.71;58.46
46211;BME280;52144;48.040;-1.594;2023-04-01T00:19:18;100378.63;;;20.08;56.64
46211;BME280;52144;48.040;-1.594;2023-04-01T00:21:46;100378.00;;;19.44;58.00
46211;BME280;52144;48.040;-1.594;2023-04-01T00:24:15;100380.91;;;19.00;59.45
46211;BME280;52144;48.040;-1.594;2023-04-01T00:26:43;100387.09;;;19.43;58.33
46211;BME280;52144;48.040;-1.594;2023-04-01T00:29:11;100383.47;;;19.63;58.33
46211;BME280;52144;48.040;-1.594;2023-04-01T00:31:39;100387.31;;;20.01;57.27
46211;BME280;52144;48.040;-1.594;2023-04-01T00:34:07;100381.59;;;20.04;57.06
46211;BME280;52144;48.040;-1.594;2023-04-01T00:36:34;100388.44;;;19.58;57.89
46211;BME280;52144;48.040;-1.594;2023-04-01T00:39:02;100379.16;;;19.20;59.64
46211;BME280;52144;48.040;-1.594;2023-04-01T00:41:31;100389.59;;;19.65;58.63
46211;BME280;52144;48.040;-1.594;2023-04-01T00:44:16;100393.81;;;19.79;58.07
46211;BME280;52144;48.040;-1.594;2023-04-01T00:46:45;100398.97;;;19.31;59.24
46211;BME280;52144;48.040;-1.594;2023-04-01T00:49:14;100398.31;;;19.38;59.00
46211;BME280;52144;48.040;-1.594;2023-04-01T00:51:45;100396.06;;;18.59;61.85
46211;BME280;52144;48.040;-1.594;2023-04-01T00:54:16;100392.41;;;19.85;59.00
46211;BME280;52144;48.040;-1.594;2023-04-01T00:56:51;100384.25;;;20.64;56.81
46211;BME280;52144;48.040;-1.594;2023-04-01T00:59:26;100386.50;;;20.50;55.30
46211;BME280;52144;48.040;-1.594;2023-04-01T01:01:55;100388.97;;;19.83;56.64
46211;BME280;52144;48.040;-1.594;2023-04-01T01:04:24;100387.41;;;20.60;55.84
46211;BME280;52144;48.040;-1.594;2023-04-01T01:06:58;100384.53;;;20.61;54.39
46211;BME280;52144;48.040;-1.594;2023-04-01T01:09:34;100387.56;;;19.17;56.60
46211;BME280;52144;48.040;-1.594;2023-04-01T01:12:11;100398.06;;;19.82;56.69
46211;BME280;52144;48.040;-1.594;2023-04-01T01:14:51;100397.28;;;19.60;57.23
46211;BME280;52144;48.040;-1.594;2023-04-01T01:17:28;100394.84;;;19.98;56.09
46211;BME280;52144;48.040;-1.594;2023-04-01T01:20:24;100399.97;;;20.11;54.72
46211;BME280;52144;48.040;-1.594;2023-04-01T01:26:16;100409.94;;;19.70;56.39
46211;BME280;52144;48.040;-1.594;2023-04-01T01:29:03;100409.81;;;20.12;55.40
46211;BME280;52144;48.040;-1.594;2023-04-01T01:31:37;100412.06;;;19.97;55.73
46211;BME280;52144;48.040;-1.594;2023-04-01T01:34:17;100402.09;;;19.57;56.61
46211;BME280;52144;48.040;-1.594;2023-04-01T01:36:53;100412.13;;;19.76;56.45
46211;BME280;52144;48.040;-1.594;2023-04-01T01:39:24;100409.75;;;19.00;58.40
46211;BME280;52144;48.040;-1.594;2023-04-01T01:41:55;100413.03;;;19.55;57.16
46211;BME280;52144;48.040;-1.594;2023-04-01T01:44:25;100420.19;;;19.97;56.06
46211;BME280;52144;48.040;-1.594;2023-04-01T01:46:55;100424.38;;;19.49;57.78
46211;BME280;52144;48.040;-1.594;2023-04-01T01:49:23;100424.56;;;19.88;56.42
46211;BME280;52144;48.040;-1.594;2023-04-01T01:51:53;100419.06;;;19.38;56.73
46211;BME280;52144;48.040;-1.594;2023-04-01T01:54:21;100412.03;;;19.87;55.09
46211;BME280;52144;48.040;-1.594;2023-04-01T01:56:51;100418.94;;;19.70;55.99
46211;BME280;52144;48.040;-1.594;2023-04-01T01:59:22;100424.72;;;19.96;55.12
46211;BME280;52144;48.040;-1.594;2023-04-01T02:01:54;100429.19;;;19.45;56.68
46211;BME280;52144;48.040;-1.594;2023-04-01T02:04:24;100425.06;;;20.22;55.00
46211;BME280;52144;48.040;-1.594;2023-04-01T02:06:59;100424.53;;;18.84;58.50
46211;BME280;52144;48.040;-1.594;2023-04-01T02:09:28;100421.22;;;19.44;56.67
46211;BME280;52144;48.040;-1.594;2023-04-01T02:11:57;100422.56;;;19.80;56.91
46211;BME280;52144;48.040;-1.594;2023-04-01T02:14:28;100416.50;;;20.08;54.27
46211;BME280;52144;48.040;-1.594;2023-04-01T02:16:58;100419.34;;;20.06;54.04
46211;BME280;52144;48.040;-1.594;2023-04-01T02:19:32;100419.53;;;19.74;54.87
46211;BME280;52144;48.040;-1.594;2023-04-01T02:22:04;100420.13;;;20.37;54.23
46211;BME280;52144;48.040;-1.594;2023-04-01T02:24:35;100410.34;;;19.96;54.75
46211;BME280;52144;48.040;-1.594;2023-04-01T02:27:04;100404.91;;;19.86;55.82
46211;BME280;52144;48.040;-1.594;2023-04-01T02:29:32;100409.16;;;19.17;56.61
46211;BME280;52144;48.040;-1.594;2023-04-01T02:32:00;100403.31;;;19.43;56.74
46211;BME280;52144;48.040;-1.594;2023-04-01T02:34:29;100404.69;;;20.18;54.92
46211;BME280;52144;48.040;-1.594;2023-04-01T02:36:57;100396.75;;;20.36;53.53
46211;BME280;52144;48.040;-1.594;2023-04-01T02:39:26;100401.34;;;20.65;53.81
46211;BME280;52144;48.040;-1.594;2023-04-01T02:41:54;100402.75;;;19.80;55.62
46211;BME280;52144;48.040;-1.594;2023-04-01T02:44:22;100398.31;;;20.49;54.30
46211;BME280;52144;48.040;-1.594;2023-04-01T02:46:50;100403.06;;;21.33;52.68
46211;BME280;52144;48.040;-1.594;2023-04-01T02:49:19;100402.22;;;19.96;54.90
46211;BME280;52144;48.040;-1.594;2023-04-01T02:51:47;100408.25;;;19.69;56.77
46211;BME280;52144;48.040;-1.594;2023-04-01T02:54:14;100404.69;;;20.18;54.98
46211;BME280;52144;48.040;-1.594;2023-04-01T02:56:44;100406.81;;;20.15;55.28
46211;BME280;52144;48.040;-1.594;2023-04-01T02:59:12;100410.81;;;20.20;56.31
46211;BME280;52144;48.040;-1.594;2023-04-01T03:01:39;100407.69;;;20.25;55.89
46211;BME280;52144;48.040;-1.594;2023-04-01T03:04:07;100405.84;;;20.16;55.20
46211;BME280;52144;48.040;-1.594;2023-04-01T03:06:35;100402.75;;;20.89;53.89
46211;BME280;52144;48.040;-1.594;2023-04-01T03:09:03;100409.97;;;20.20;54.95
46211;BME280;52144;48.040;-1.594;2023-04-01T03:11:31;100403.47;;;20.71;53.44
46211;BME280;52144;48.040;-1.594;2023-04-01T03:14:00;100409.59;;;19.74;55.04
46211;BME280;52144;48.040;-1.594;2023-04-01T03:16:27;100401.88;;;20.49;54.72
46211;BME280;52144;48.040;-1.594;2023-04-01T03:18:55;100405.69;;;20.08;54.81
46211;BME280;52144;48.040;-1.594;2023-04-01T03:21:25;100409.75;;;20.62;54.10
46211;BME280;52144;48.040;-1.594;2023-04-01T03:23:53;100413.88;;;20.66;53.19
46211;BME280;52144;48.040;-1.594;2023-04-01T03:26:21;100405.59;;;20.58;54.64
46211;BME280;52144;48.040;-1.594;2023-04-01T03:28:49;100413.09;;;20.15;55.38
46211;BME280;52144;48.040;-1.594;2023-04-01T03:31:18;100409.72;;;20.81;53.71
46211;BME280;52144;48.040;-1.594;2023-04-01T03:33:49;100402.88;;;20.48;54.54
46211;BME280;52144;48.040;-1.594;2023-04-01T03:36:17;100413.31;;;20.62;54.03
46211;BME280;52144;48.040;-1.594;2023-04-01T03:38:45;100406.88;;;20.44;53.90
46211;BME280;52144;48.040;-1.594;2023-04-01T03:41:14;100417.06;;;20.01;54.67
46211;BME280;52144;48.040;-1.594;2023-04-01T03:43:42;100421.66;;;20.30;53.43
46211;BME280;52144;48.040;-1.594;2023-04-01T03:46:09;100432.16;;;20.04;54.87
46211;BME280;52144;48.040;-1.594;2023-04-01T03:48:39;100423.03;;;19.95;54.78
46211;BME280;52144;48.040;-1.594;2023-04-01T03:51:07;100427.25;;;20.77;52.68
46211;BME280;52144;48.040;-1.594;2023-04-01T03:53:35;100434.25;;;20.00;54.77
46211;BME280;52144;48.040;-1.594;2023-04-01T03:56:04;100429.13;;;20.67;53.39
46211;BME280;52144;48.040;-1.594;2023-04-01T03:58:32;100439.97;;;19.67;55.44
46211;BME280;52144;48.040;-1.594;2023-04-01T04:00:59;100440.63;;;20.50;53.70
46211;BME280;52144;48.040;-1.594;2023-04-01T04:03:27;100443.66;;;19.65;55.20
46211;BME280;52144;48.040;-1.594;2023-04-01T04:05:57;100432.63;;;20.29;54.45
46211;BME280;52144;48.040;-1.594;2023-04-01T04:08:24;100440.09;;;20.85;53.35
46211;BME280;52144;48.040;-1.594;2023-04-01T04:10:55;100440.44;;;19.72;55.35
46211;BME280;52144;48.040;-1.594;2023-04-01T04:13:23;100434.38;;;18.86;58.85
46211;BME280;52144;48.040;-1.594;2023-04-01T04:15:50;100438.34;;;20.35;54.71
46211;BME280;52144;48.040;-1.594;2023-04-01T04:18:18;100435.66;;;21.03;53.17
46211;BME280;52144;48.040;-1.594;2023-04-01T04:20:46;100429.78;;;20.40;54.42
46211;BME280;52144;48.040;-1.594;2023-04-01T04:23:18;100429.56;;;20.62;52.44
46211;BME280;52144;48.040;-1.594;2023-04-01T04:25:57;100436.00;;;19.40;57.47
46211;BME280;52144;48.040;-1.594;2023-04-01T04:28:26;100437.75;;;20.22;55.73
46211;BME280;52144;48.040;-1.594;2023-04-01T04:30:55;100440.31;;;20.33;54.83
46211;BME280;52144;48.040;-1.594;2023-04-01T04:33:23;100443.38;;;19.69;55.58
46211;BME280;52144;48.040;-1.594;2023-04-01T04:35:53;100438.03;;;20.38;54.89
46211;BME280;52144;48.040;-1.594;2023-04-01T04:38:23;100432.16;;;20.14;54.38
46211;BME280;52144;48.040;-1.594;2023-04-01T04:40:51;100430.84;;;19.68;55.73
46211;BME280;52144;48.040;-1.594;2023-04-01T04:43:19;100421.81;;;20.38;54.47
46211;BME280;52144;48.040;-1.594;2023-04-01T04:45:47;100424.66;;;19.46;56.51
46211;BME280;52144;48.040;-1.594;2023-04-01T04:48:16;100418.66;;;20.14;55.24
46211;BME280;52144;48.040;-1.594;2023-04-01T04:50:47;100424.44;;;19.99;55.23
46211;BME280;52144;48.040;-1.594;2023-04-01T04:53:18;100422.31;;;18.90;59.04
46211;BME280;52144;48.040;-1.594;2023-04-01T04:55:48;100423.69;;;19.88;56.14
46211;BME280;52144;48.040;-1.594;2023-04-01T04:58:17;100423.44;;;18.55;59.82
46211;BME280;52144;48.040;-1.594;2023-04-01T05:00:45;100421.78;;;18.96;58.80
46211;BME280;52144;48.040;-1.594;2023-04-01T05:03:14;100419.84;;;19.90;56.08
46211;BME280;52144;48.040;-1.594;2023-04-01T05:05:48;100420.81;;;20.49;54.71
46211;BME280;52144;48.040;-1.594;2023-04-01T05:08:16;100432.56;;;19.99;55.30
46211;BME280;52144;48.040;-1.594;2023-04-01T05:10:44;100431.94;;;19.55;56.71
46211;BME280;52144;48.040;-1.594;2023-04-01T05:13:13;100430.94;;;19.26;57.81
46211;BME280;52144;48.040;-1.594;2023-04-01T05:15:41;100432.31;;;18.99;58.24
46211;BME280;52144;48.040;-1.594;2023-04-01T05:18:09;100442.53;;;19.16;58.57
46211;BME280;52144;48.040;-1.594;2023-04-01T05:20:36;100442.66;;;19.36;57.63
46211;BME280;52144;48.040;-1.594;2023-04-01T05:23:04;100447.38;;;20.15;55.89
46211;BME280;52144;48.040;-1.594;2023-04-01T05:25:32;100455.34;;;19.45;57.27
46211;BME280;52144;48.040;-1.594;2023-04-01T05:28:00;100449.59;;;19.90;55.28
46211;BME280;52144;48.040;-1.594;2023-04-01T05:30:30;100450.91;;;20.75;54.29
46211;BME280;52144;48.040;-1.594;2023-04-01T05:32:57;100456.06;;;20.69;52.78
46211;BME280;52144;48.040;-1.594;2023-04-01T05:35:25;100459.69;;;19.57;55.42
46211;BME280;52144;48.040;-1.594;2023-04-01T05:37:53;100458.75;;;20.88;53.10
46211;BME280;52144;48.040;-1.594;2023-04-01T05:40:21;100456.94;;;20.19;54.74
46211;BME280;52144;48.040;-1.594;2023-04-01T05:42:49;100450.63;;;20.59;53.39
46211;BME280;52144;48.040;-1.594;2023-04-01T05:45:16;100445.19;;;20.98;52.87
46211;BME280;52144;48.040;-1.594;2023-04-01T05:47:45;100430.09;;;21.15;52.73
46211;BME280;52144;48.040;-1.594;2023-04-01T05:50:13;100437.78;;;20.90;52.25
46211;BME280;52144;48.040;-1.594;2023-04-01T05:52:41;100438.94;;;21.07;52.35
46211;BME280;52144;48.040;-1.594;2023-04-01T05:55:11;100441.91;;;20.94;52.41
46211;BME280;52144;48.040;-1.594;2023-04-01T05:57:38;100437.44;;;20.25;53.78
46211;BME280;52144;48.040;-1.594;2023-04-01T06:00:07;100443.06;;;20.92;53.59
46211;BME280;52144;48.040;-1.594;2023-04-01T06:02:35;100451.59;;;20.58;53.30
46211;BME280;52144;48.040;-1.594;2023-04-01T06:05:13;100456.84;;;20.40;53.62
46211;BME280;52144;48.040;-1.594;2023-04-01T06:07:42;100456.16;;;19.88;55.29
46211;BME280;52144;48.040;-1.594;2023-04-01T06:10:13;100462.69;;;20.35;53.12
46211;BME280;52144;48.040;-1.594;2023-04-01T06:12:57;100458.88;;;21.06;51.81
46211;BME280;52144;48.040;-1.594;2023-04-01T06:15:34;100462.50;;;20.27;54.08
46211;BME280;52144;48.040;-1.594;2023-04-01T06:21:48;100460.38;;;20.11;54.63
46211;BME280;52144;48.040;-1.594;2023-04-01T06:24:28;100460.16;;;19.62;55.82
46211;BME280;52144;48.040;-1.594;2023-04-01T06:27:12;100458.31;;;20.54;53.86
46211;BME280;52144;48.040;-1.594;2023-04-01T06:30:00;100460.59;;;20.78;52.18
46211;BME280;52144;48.040;-1.594;2023-04-01T06:32:39;100460.00;;;20.35;53.05
46211;BME280;52144;48.040;-1.594;2023-04-01T06:35:34;100458.25;;;20.34;52.92
46211;BME280;52144;48.040;-1.594;2023-04-01T06:43:53;100467.25;;;19.94;55.14
46211;BME280;52144;48.040;-1.594;2023-04-01T06:46:30;100467.88;;;19.46;54.65
46211;BME280;52144;48.040;-1.594;2023-04-01T06:49:11;100465.69;;;20.42;53.47
46211;BME280;52144;48.040;-1.594;2023-04-01T06:51:49;100468.34;;;19.72;56.26
46211;BME280;52144;48.040;-1.594;2023-04-01T06:54:24;100473.53;;;20.55;52.97
46211;BME280;52144;48.040;-1.594;2023-04-01T06:56:57;100469.44;;;21.09;52.49
46211;BME280;52144;48.040;-1.594;2023-04-01T06:59:28;100474.56;;;20.83;52.87
46211;BME280;52144;48.040;-1.594;2023-04-01T07:01:59;100480.88;;;20.33;52.87
46211;BME280;52144;48.040;-1.594;2023-04-01T07:04:30;100473.63;;;20.24;55.38
46211;BME280;52144;48.040;-1.594;2023-04-01T07:07:02;100470.00;;;19.21;56.24
46211;BME280;52144;48.040;-1.594;2023-04-01T07:09:35;100464.81;;;19.30;56.33
46211;BME280;52144;48.040;-1.594;2023-04-01T07:12:10;100473.00;;;20.90;53.43
46211;BME280;52144;48.040;-1.594;2023-04-01T07:14:42;100472.72;;;20.04;53.92
46211;BME280;52144;48.040;-1.594;2023-04-01T07:17:15;100468.00;;;21.15;52.89
46211;BME280;52144;48.040;-1.594;2023-04-01T07:19:47;100469.56;;;20.59;53.51
46211;BME280;52144;48.040;-1.594;2023-04-01T07:22:25;100468.31;;;20.82;52.39
46211;BME280;52144;48.040;-1.594;2023-04-01T07:24:59;100472.41;;;20.48;53.65
46211;BME280;52144;48.040;-1.594;2023-04-01T07:27:29;100463.56;;;21.04;51.76
46211;BME280;52144;48.040;-1.594;2023-04-01T07:29:57;100466.69;;;21.29;51.27
46211;BME280;52144;48.040;-1.594;2023-04-01T07:32:34;100463.50;;;19.76;55.02
46211;BME280;52144;48.040;-1.594;2023-04-01T07:35:15;100471.94;;;19.61;56.71
46211;BME280;52144;48.040;-1.594;2023-04-01T07:37:52;100476.44;;;21.69;51.80
46211;BME280;52144;48.040;-1.594;2023-04-01T07:40:32;100479.56;;;20.58;54.15
46211;BME280;52144;48.040;-1.594;2023-04-01T07:43:22;100481.69;;;20.84;52.68
46211;BME280;52144;48.040;-1.594;2023-04-01T07:46:00;100485.34;;;20.44;53.13
46211;BME280;52144;48.040;-1.594;2023-04-01T07:48:35;100471.38;;;21.36;51.39
46211;BME280;52144;48.040;-1.594;2023-04-01T07:51:09;100479.31;;;21.57;51.72
46211;BME280;52144;48.040;-1.594;2023-04-01T07:53:46;100482.72;;;21.69;51.25
46211;BME280;52144;48.040;-1.594;2023-04-01T07:56:22;100485.28;;;19.84;54.92
46211;BME280;52144;48.040;-1.594;2023-04-01T07:59:00;100494.13;;;20.27;54.49
46211;BME280;52144;48.040;-1.594;2023-04-01T08:01:37;100476.84;;;20.88;52.75
46211;BME280;52144;48.040;-1.594;2023-04-01T08:04:26;100489.34;;;20.50;53.20
46211;BME280;52144;48.040;-1.594;2023-04-01T08:07:02;100492.84;;;19.90;53.73
46211;BME280;52144;48.040;-1.594;2023-04-01T08:09:40;100485.50;;;21.87;50.56
46211;BME280;52144;48.040;-1.594;2023-04-01T08:12:21;100486.75;;;21.55;51.71
46211;BME280;52144;48.040;-1.594;2023-04-01T08:15:03;100487.34;;;21.49;50.76
46211;BME280;52144;48.040;-1.594;2023-04-01T08:17:40;100489.53;;;21.07;52.74
46211;BME280;52144;48.040;-1.594;2023-04-01T08:20:23;100495.69;;;21.09;51.61
46211;BME280;52144;48.040;-1.594;2023-04-01T08:22:57;100491.97;;;20.71;52.86
46211;BME280;52144;48.040;-1.594;2023-04-01T08:25:29;100487.63;;;21.27;50.96
46211;BME280;52144;48.040;-1.594;2023-04-01T08:28:03;100481.66;;;20.55;52.56
46211;BME280;52144;48.040;-1.594;2023-04-01T08:30:41;100489.28;;;20.30;53.49
46211;BME280;52144;48.040;-1.594;2023-04-01T08:33:14;100489.34;;;21.47;50.79
46211;BME280;52144;48.040;-1.594;2023-04-01T08:35:46;100485.63;;;21.38;51.11
46211;BME280;52144;48.040;-1.594;2023-04-01T08:38:22;100489.81;;;22.81;49.67
46211;BME280;52144;48.040;-1.594;2023-04-01T08:40:57;100494.56;;;22.06;50.39
46211;BME280;52144;48.040;-1.594;2023-04-01T08:43:55;100492.09;;;23.03;49.13
46211;BME280;52144;48.040;-1.594;2023-04-01T08:46:52;100493.22;;;21.25;51.82
46211;BME280;52144;48.040;-1.594;2023-04-01T08:49:42;100501.63;;;21.32;51.26
46211;BME280;52144;48.040;-1.594;2023-04-01T08:52:29;100495.38;;;21.21;51.65
46211;BME280;52144;48.040;-1.594;2023-04-01T08:55:25;100500.16;;;19.69;54.08
46211;BME280;52144;48.040;-1.594;2023-04-01T09:00:53;100493.94;;;21.27;51.20
46211;BME280;52144;48.040;-1.594;2023-04-01T09:03:37;100492.97;;;20.29;51.73
46211;BME280;52144;48.040;-1.594;2023-04-01T09:06:28;100492.03;;;21.57;50.25
46211;BME280;52144;48.040;-1.594;2023-04-01T09:09:29;100501.44;;;19.95;50.88
46211;BME280;52144;48.040;-1.594;2023-04-01T09:15:53;100502.91;;;20.19;51.71
46211;BME280;52144;48.040;-1.594;2023-04-01T09:18:59;100503.94;;;20.68;50.41
46211;BME280;52144;48.040;-1.594;2023-04-01T09:21:55;100496.56;;;21.76;48.33
46211;BME280;52144;48.040;-1.594;2023-04-01T09:24:41;100500.03;;;21.39;48.76
46211;BME280;52144;48.040;-1.594;2023-04-01T09:27:25;100486.88;;;21.63;48.20
46211;BME280;52144;48.040;-1.594;2023-04-01T09:30:11;100485.94;;;21.92;48.42
46211;BME280;52144;48.040;-1.594;2023-04-01T09:33:24;100486.09;;;20.66;50.39
46211;BME280;52144;48.040;-1.594;2023-04-01T09:36:05;100477.81;;;21.26;49.28
46211;BME280;52144;48.040;-1.594;2023-04-01T09:38:49;100483.06;;;21.56;48.71
46211;BME280;52144;48.040;-1.594;2023-04-01T09:41:29;100490.47;;;22.29;47.27
46211;BME280;52144;48.040;-1.594;2023-04-01T09:44:01;100483.84;;;22.77;46.24
46211;BME280;52144;48.040;-1.594;2023-04-01T09:46:42;100488.66;;;22.66;46.04
46211;BME280;52144;48.040;-1.594;2023-04-01T09:49:23;100487.81;;;22.10;47.24
46211;BME280;52144;48.040;-1.594;2023-04-01T09:52:06;100482.47;;;21.62;47.78
46211;BME280;52144;48.040;-1.594;2023-04-01T09:54:53;100486.72;;;21.65;47.86
46211;BME280;52144;48.040;-1.594;2023-04-01T09:57:45;100485.81;;;22.12;47.34
46211;BME280;52144;48.040;-1.594;2023-04-01T10:00:53;100490.84;;;22.34;46.15
46211;BME280;52144;48.040;-1.594;2023-04-01T10:07:16;100489.13;;;19.30;52.89
46211;BME280;52144;48.040;-1.594;2023-04-01T10:19:08;100479.94;;;21.32;48.97
46211;BME280;52144;48.040;-1.594;2023-04-01T10:31:35;100475.19;;;21.53;50.52
46211;BME280;52144;48.040;-1.594;2023-04-01T10:34:28;100488.16;;;22.07;49.06
46211;BME280;52144;48.040;-1.594;2023-04-01T10:37:18;100494.31;;;20.44;51.99
46211;BME280;52144;48.040;-1.594;2023-04-01T10:46:22;100483.09;;;22.12;49.43
46211;BME280;52144;48.040;-1.594;2023-04-01T10:55:22;100484.41;;;21.13;51.08
46211;BME280;52144;48.040;-1.594;2023-04-01T10:58:27;100483.41;;;21.81;49.21
46211;BME280;52144;48.040;-1.594;2023-04-01T11:01:20;100477.56;;;20.80;50.88
46211;BME280;52144;48.040;-1.594;2023-04-01T11:04:16;100478.25;;;22.43;48.37
46211;BME280;52144;48.040;-1.594;2023-04-01T11:07:17;100473.78;;;21.96;48.26
46211;BME280;52144;48.040;-1.594;2023-04-01T11:10:18;100476.34;;;23.07;45.79
46211;BME280;52144;48.040;-1.594;2023-04-01T11:13:14;100470.41;;;22.94;46.38
46211;BME280;52144;48.040;-1.594;2023-04-01T11:16:03;100471.50;;;22.47;45.43
46211;BME280;52144;48.040;-1.594;2023-04-01T11:22:13;100472.09;;;21.29;47.14
46211;BME280;52144;48.040;-1.594;2023-04-01T11:31:35;100479.63;;;23.63;43.72
46211;BME280;52144;48.040;-1.594;2023-04-01T11:34:14;100472.31;;;22.30;44.89
46211;BME280;52144;48.040;-1.594;2023-04-01T11:36:53;100473.13;;;21.75;46.03
46211;BME280;52144;48.040;-1.594;2023-04-01T11:39:30;100478.38;;;23.31;43.34
46211;BME280;52144;48.040;-1.594;2023-04-01T11:42:10;100490.66;;;22.46;44.76
46211;BME280;52144;48.040;-1.594;2023-04-01T11:44:46;100513.88;;;20.08;55.64
46211;BME280;52144;48.040;-1.594;2023-04-01T11:47:43;100511.03;;;20.19;55.97
46211;BME280;52144;48.040;-1.594;2023-04-01T11:50:21;100520.38;;;20.55;56.19
46211;BME280;52144;48.040;-1.594;2023-04-01T11:53:09;100523.47;;;21.01;56.04
46211;BME280;52144;48.040;-1.594;2023-04-01T11:55:50;100514.31;;;21.31;55.16
46211;BME280;52144;48.040;-1.594;2023-04-01T11:58:47;100513.97;;;21.63;56.25
46211;BME280;52144;48.040;-1.594;2023-04-01T12:01:27;100517.97;;;22.07;54.70
46211;BME280;52144;48.040;-1.594;2023-04-01T12:07:11;100509.34;;;22.21;53.05
46211;BME280;52144;48.040;-1.594;2023-04-01T12:09:49;100499.22;;;21.86;53.26
46211;BME280;52144;48.040;-1.594;2023-04-01T12:12:27;100502.63;;;22.89;51.51
46211;BME280;52144;48.040;-1.594;2023-04-01T12:15:05;100503.34;;;22.17;50.73
46211;BME280;52144;48.040;-1.594;2023-04-01T12:17:48;100508.91;;;22.89;50.29
46211;BME280;52144;48.040;-1.594;2023-04-01T12:20:36;100501.88;;;23.14;49.17
46211;BME280;52144;48.040;-1.594;2023-04-01T12:23:20;100500.50;;;23.36;49.94
46211;BME280;52144;48.040;-1.594;2023-04-01T12:26:09;100498.28;;;22.60;48.86
46211;BME280;52144;48.040;-1.594;2023-04-01T12:28:49;100498.13;;;22.79;49.84
46211;BME280;52144;48.040;-1.594;2023-04-01T12:31:29;100489.25;;;22.41;49.52
46211;BME280;52144;48.040;-1.594;2023-04-01T12:34:24;100488.97;;;22.80;49.10
46211;BME280;52144;48.040;-1.594;2023-04-01T12:37:05;100485.00;;;22.01;51.00
46211;BME280;52144;48.040;-1.594;2023-04-01T12:39:57;100483.09;;;23.03;47.44
46211;BME280;52144;48.040;-1.594;2023-04-01T12:42:38;100485.28;;;23.43;45.76
46211;BME280;52144;48.040;-1.594;2023-04-01T12:51:49;100482.13;;;24.92;43.46
46211;BME280;52144;48.040;-1.594;2023-04-01T12:54:41;100491.88;;;23.41;45.85
46211;BME280;52144;48.040;-1.594;2023-04-01T12:57:25;100501.34;;;22.29;48.17
46211;BME280;52144;48.040;-1.594;2023-04-01T13:00:18;100504.31;;;22.54;47.09
46211;BME280;52144;48.040;-1.594;2023-04-01T13:03:05;100508.03;;;21.97;47.15
46211;BME280;52144;48.040;-1.594;2023-04-01T13:06:04;100506.91;;;22.55;46.21
46211;BME280;52144;48.040;-1.594;2023-04-01T13:08:42;100514.25;;;21.80;46.74
46211;BME280;52144;48.040;-1.594;2023-04-01T13:11:20;100527.81;;;21.80;46.65
46211;BME280;52144;48.040;-1.594;2023-04-01T13:14:22;100529.75;;;21.11;46.86
46211;BME280;52144;48.040;-1.594;2023-04-01T13:17:04;100539.13;;;20.68;46.93
46211;BME280;52144;48.040;-1.594;2023-04-01T13:19:39;100538.50;;;22.19;44.96
46211;BME280;52144;48.040;-1.594;2023-04-01T13:22:24;100531.81;;;20.59;47.01
46211;BME280;52144;48.040;-1.594;2023-04-01T13:24:58;100553.06;;;20.63;47.30
46211;BME280;52144;48.040;-1.594;2023-04-01T13:27:34;100544.97;;;20.73;47.25
46211;BME280;52144;48.040;-1.594;2023-04-01T13:30:21;100545.13;;;21.40;46.89
46211;BME280;52144;48.040;-1.594;2023-04-01T13:32:58;100534.56;;;21.94;45.99
46211;BME280;52144;48.040;-1.594;2023-04-01T13:35:36;100537.56;;;22.38;45.09
46211;BME280;52144;48.040;-1.594;2023-04-01T13:38:21;100538.06;;;22.51;44.27
46211;BME280;52144;48.040;-1.594;2023-04-01T13:40:58;100532.72;;;22.32;44.53
46211;BME280;52144;48.040;-1.594;2023-04-01T13:43:34;100541.22;;;22.19;44.82
46211;BME280;52144;48.040;-1.594;2023-04-01T13:46:16;100541.38;;;22.45;45.04
46211;BME280;52144;48.040;-1.594;2023-04-01T13:49:20;100551.81;;;22.86;44.75
46211;BME280;52144;48.040;-1.594;2023-04-01T13:52:00;100551.53;;;24.55;43.73
46211;BME280;52144;48.040;-1.594;2023-04-01T13:57:47;100556.59;;;23.37;44.67
46211;BME280;52144;48.040;-1.594;2023-04-01T14:00:33;100556.25;;;24.11;44.07
46211;BME280;52144;48.040;-1.594;2023-04-01T14:06:17;100561.50;;;23.60;44.67
46211;BME280;52144;48.040;-1.594;2023-04-01T14:08:59;100570.16;;;23.55;44.28
46211;BME280;52144;48.040;-1.594;2023-04-01T14:11:36;100570.09;;;22.48;46.13
46211;BME280;52144;48.040;-1.594;2023-04-01T14:14:15;100564.84;;;21.99;46.46
46211;BME280;52144;48.040;-1.594;2023-04-01T14:16:58;100566.25;;;21.46;45.96
46211;BME280;52144;48.040;-1.594;2023-04-01T14:19:50;100565.78;;;23.62;43.15
46211;BME280;52144;48.040;-1.594;2023-04-01T14:22:25;100570.47;;;23.52;42.43
46211;BME280;52144;48.040;-1.594;2023-04-01T14:25:26;100570.38;;;23.80;42.72
46211;BME280;52144;48.040;-1.594;2023-04-01T14:28:03;100571.47;;;24.64;41.83
46211;BME280;52144;48.040;-1.594;2023-04-01T14:30:42;100570.44;;;24.57;42.12
46211;BME280;52144;48.040;-1.594;2023-04-01T14:33:26;100571.97;;;24.25;41.90
46211;BME280;52144;48.040;-1.594;2023-04-01T14:36:06;100579.63;;;24.64;41.83
46211;BME280;52144;48.040;-1.594;2023-04-01T14:38:51;100570.13;;;24.76;41.58
46211;BME280;52144;48.040;-1.594;2023-04-01T14:41:32;100570.56;;;24.13;41.92
46211;BME280;52144;48.040;-1.594;2023-04-01T14:44:29;100599.53;;;22.70;46.10
46211;BME280;52144;48.040;-1.594;2023-04-01T14:50:14;100587.84;;;22.70;48.57
46211;BME280;52144;48.040;-1.594;2023-04-01T14:52:46;100585.16;;;22.60;49.59